x

Virginia Beach 64 Nm East Of Virginia Beach, Va (44014) Wave Buoy

6:50pm - Tue 4th Aug 2015 All times are EDT. -4 hours from GMT.

  • Sig Wave height 3.9ft
  • Swell Direction
  • Peak Period 6s
  • Average Period 4s
  • Wind
    25mph, 29mph gusts
  • Sea Temp 81°f
  • Air Temp 82°f
  • Sea Pressure 1013.9mb
  • Virginia Beach 64 Nm East Of Virginia Beach, Va
  • Virginia Beach 64 Nm East Of Virginia Beach, Va

More Historic Weather Station data

Upgrade to MSW Pro to gain access to the past 30 days of data for over 8000 Wavebouys and Weather Stations around the globe.

Join Pro

Comparision Forecast

View Surf forecast
   
Tue 08/04 6:50pm 4ft 6s 4s 25 29 mph 1013.9mb 81f 82f
5:50pm 4ft 6s 4s 20 25 mph 1014.1mb 81f 81f
4:50pm 4.5ft 6s 5s 18 22 mph 1014.5mb 81f 81f
3:50pm 4.5ft 5s 5s 20 25 mph 1014.8mb 81f 80f
2:50pm 5ft 5s 4s 25 29 mph 1014.8mb 81f 82f
1:50pm 4.5ft 5s 4s 22 29 mph 1015mb 81f 82f
12:50pm 4.5ft 6s 5s 18 22 mph 1015.2mb 81f 82f
11:50am 4.5ft 6s 5s 20 22 mph 1015.5mb 81f 81f
10:50am 4.5ft 7s 5s 18 22 mph 1015.4mb 81f 81f
9:50am 4.5ft 6s 5s 18 20 mph 1015.4mb 81f 81f
8:50am 4.5ft 7s 5s 13 18 mph 1015.5mb 81f 81f
7:50am 5ft 7s 5s 16 20 mph 1015.6mb 80f 81f
6:50am 5ft 7s 5s 18 20 mph 1015.5mb 81f 81f
5:50am 5.5ft 7s 5s 18 22 mph 1014.8mb 80f 81f
4:50am 6.5ft 6s 5s 20 25 mph 1013.8mb 81f 80f
3:50am 6.5ft 6s 5s 27 31 mph 1013.6mb 81f 80f
2:50am 6.5ft 6s 5s 27 34 mph 1013.7mb 81f 81f
1:50am 6ft 6s 5s 29 36 mph 1013.5mb 81f 80f
12:50am 6ft 6s  -  27 34 mph 1013.6mb 81f 80f
Mon 08/03 11:50pm 5.5ft 6s 5s 27 31 mph 1013.8mb 81f 80f
10:50pm 5.5ft 6s 5s 25 29 mph 1013.7mb 81f 80f
9:50pm 5ft 7s 5s 25 29 mph 1013.4mb 81f 80f
8:50pm 5ft 6s 5s 25 29 mph 1013mb 81f 79f
7:50pm 5ft 6s 5s 22 29 mph 1012.8mb 82f 79f
6:50pm 5ft 6s 5s 22 27 mph 1012.3mb 82f 79f
5:50pm 5ft 5s 5s 22 29 mph 1012.4mb 82f 79f
4:50pm 4.5ft 5s 5s 25 29 mph 1012.9mb 82f 79f
3:50pm 4.5ft 5s 5s 25 27 mph 1013mb 82f 79f
2:50pm 4ft 5s 4s 20 25 mph 1013.5mb 82f 80f
1:50pm 4ft 5s 4s 20 22 mph 1013.5mb 81f 78f
12:50pm 3.5ft 5s 4s 20 22 mph 1013.6mb 82f 79f
11:50am 3.5ft 4s 4s 18 20 mph 1013.4mb 82f 79f
10:50am 3.5ft 5s 4s 20 22 mph 1013.6mb 82f 80f
9:50am 3ft 7s 4s 20 22 mph 1013.2mb 82f 80f
8:50am 3ft 4s 4s 18 20 mph 1013.6mb 82f 81f
7:50am 3.5ft 6s 5s 13 18 mph 1012.9mb 82f 81f
6:50am 3.5ft 5s 5s 11 13 mph 1012.6mb 82f 81f
5:50am 3.5ft 5s 5s 16 18 mph 1012.4mb 82f 81f
4:50am 4ft 5s 5s 18 22 mph 1011.8mb 82f 81f
3:50am 3.5ft 11s 5s 18 22 mph 1012.2mb 82f 81f
2:50am 3.5ft 11s 5s 18 20 mph 1012.4mb 82f 81f
1:50am 3.5ft 5s 5s 16 18 mph 1012.7mb 82f 82f
12:50am 3ft 11s 5s 13 16 mph 1013mb 82f 82f
Sun 08/02 11:50pm 3ft 11s 5s 13 16 mph 1013.1mb 82f 82f
10:50pm 2.5ft 4s 4s 16 18 mph 1013.1mb 81f 82f
9:50pm 3ft 12s 4s 9 11 mph 1013mb 82f 82f
8:50pm 2.5ft 12s 4s 11 13 mph 1012.8mb 82f 82f
7:50pm 3ft 8s 5s 13 16 mph 1012.5mb 82f 82f
6:50pm 2.5ft 8s 5s 16 18 mph 1012.6mb 82f 82f
5:50pm 3ft 7s 5s 13 16 mph 1012.9mb 82f 82f
4:50pm 2.5ft 12s 5s 16 18 mph 1012.9mb 82f 82f
3:50pm 2.5ft 11s 5s 16 18 mph 1013mb 83f 82f
2:50pm 2.5ft 11s 5s 16 18 mph 1013.1mb 83f 82f
1:50pm 3ft 7s 5s 13 16 mph 1013.2mb 83f 82f
12:50pm 3ft 7s 6s 9 11 mph 1013.5mb 83f 82f
11:50am 3ft 7s 5s 7 9 mph 1013.7mb 83f 82f
10:50am 3ft 12s 6s 2
mph
1013.3mb 82f 82f
9:50am 3ft 8s 6s 2 4 mph 1012.8mb 82f 81f
8:50am 3ft 8s 6s 7 9 mph 1012.4mb 82f 81f
7:50am 2.5ft 11s 6s 7
mph
1012mb 81f 81f
6:50am 3ft 7s 6s 7 9 mph 1012mb 81f 80f
5:50am 2.5ft 7s 5s 7
mph
1011.7mb 81f 80f
4:50am 2.5ft 8s 6s 9 11 mph 1011.4mb 81f 81f
3:50am 3ft 11s 6s 11 13 mph 1011.4mb 81f 81f
2:50am 2.5ft 8s 5s 9 11 mph 1011.6mb 81f 81f
1:50am 3ft 8s 5s 9 11 mph 1011.9mb 81f 80f
12:50am 3.5ft 7s 5s 11 13 mph 1011.9mb 81f 80f
Sat 08/01 11:50pm 3.5ft 7s 5s 13 16 mph 1011.9mb 81f 81f
10:50pm 3.5ft 8s 5s 13 16 mph 1012.2mb 81f 81f
9:50pm 3.5ft 8s 5s 13 16 mph 1012.1mb 81f 80f
8:50pm 3.5ft 7s 5s 13 16 mph 1011.7mb 82f 80f
7:50pm 3.5ft 8s 5s 13 16 mph 1011.5mb 82f 80f
6:50pm 3.5ft 6s 5s 16 18 mph 1011.5mb 82f 80f
5:50pm 3.5ft 7s 5s 16 18 mph 1011.4mb 82f 80f
4:50pm 3.5ft 8s 5s 16 18 mph 1011.8mb 82f 80f
3:50pm 3.5ft 8s 5s 16
mph
1012mb 82f 80f
2:50pm 3.5ft 8s 5s 13 16 mph 1012.4mb 82f 81f
1:50pm 3.5ft 8s 5s 16 18 mph 1012.7mb 82f 81f
12:50pm 3.5ft 8s 6s 16 18 mph 1013.2mb 82f 81f
11:50am 3ft 8s 6s 9 11 mph 1013.7mb 82f 82f
10:50am 3.5ft 8s 6s 9 11 mph 1013.6mb 81f 82f
9:50am 3.5ft 8s 7s 9
mph
1013mb 81f 82f
8:50am 3ft 8s 6s 9
mph
1013mb 81f 81f
7:50am 3.5ft 7s 6s 7 9 mph 1012.9mb 81f 81f
6:50am 3ft 8s 6s 9
mph
1012.4mb 81f 80f
5:50am 3ft 8s 6s 9 11 mph 1012mb 81f 81f
4:50am 3.5ft 9s 6s 9 11 mph 1011.9mb 81f 81f
3:50am 3ft 9s 6s 9
mph
1012.1mb 81f 81f
2:50am 3ft 8s 6s 11 13 mph 1012.4mb 81f 81f
1:50am 3.5ft 9s 6s 4
mph
1012.8mb 82f 81f
12:50am 3.5ft 9s 7s 4
mph
1012.9mb 82f 82f